sensor_id;sensor_type;location;lat;lon;timestamp;temperature;humidity
29417;DHT22;28421;51.030;4.006;2022-09-01T00:00:45;18.60;99.90
29417;DHT22;28421;51.030;4.006;2022-09-01T00:03:14;18.60;99.90
29417;DHT22;28421;51.030;4.006;2022-09-01T00:05:40;18.70;99.90
29417;DHT22;28421;51.030;4.006;2022-09-01T00:08:06;18.70;99.90
29417;DHT22;28421;51.030;4.006;2022-09-01T00:10:32;18.70;99.90
29417;DHT22;28421;51.030;4.006;2022-09-01T00:12:58;18.70;99.90
29417;DHT22;28421;51.030;4.006;2022-09-01T00:15:24;18.50;99.90
29417;DHT22;28421;51.030;4.006;2022-09-01T00:17:49;18.50;99.90
29417;DHT22;28421;51.030;4.006;2022-09-01T00:20:15;18.50;99.90
29417;DHT22;28421;51.030;4.006;2022-09-01T00:22:41;18.50;99.90
29417;DHT22;28421;51.030;4.006;2022-09-01T00:25:07;18.60;99.90
29417;DHT22;28421;51.030;4.006;2022-09-01T00:27:33;18.50;99.90
29417;DHT22;28421;51.030;4.006;2022-09-01T00:29:59;18.30;99.90
29417;DHT22;28421;51.030;4.006;2022-09-01T00:32:25;18.20;99.90
29417;DHT22;28421;51.030;4.006;2022-09-01T00:34:51;18.20;99.90
29417;DHT22;28421;51.030;4.006;2022-09-01T00:37:17;18.10;99.90
29417;DHT22;28421;51.030;4.006;2022-09-01T00:39:43;18.10;99.90
29417;DHT22;28421;51.030;4.006;2022-09-01T00:42:08;18.00;99.90
29417;DHT22;28421;51.030;4.006;2022-09-01T00:44:34;18.10;99.90
29417;DHT22;28421;51.030;4.006;2022-09-01T00:47:01;18.00;99.90
29417;DHT22;28421;51.030;4.006;2022-09-01T00:49:30;18.30;99.90
29417;DHT22;28421;51.030;4.006;2022-09-01T00:52:04;18.20;99.90
29417;DHT22;28421;51.030;4.006;2022-09-01T00:54:35;18.20;99.90
29417;DHT22;28421;51.030;4.006;2022-09-01T00:57:02;18.10;99.90
29417;DHT22;28421;51.030;4.006;2022-09-01T00:59:29;18.10;99.90
29417;DHT22;28421;51.030;4.006;2022-09-01T01:01:55;18.00;99.90
29417;DHT22;28421;51.030;4.006;2022-09-01T01:04:23;17.80;99.90
29417;DHT22;28421;51.030;4.006;2022-09-01T01:06:53;17.80;99.90
29417;DHT22;28421;51.030;4.006;2022-09-01T01:09:28;17.90;99.90
29417;DHT22;28421;51.030;4.006;2022-09-01T01:11:55;18.00;99.90
29417;DHT22;28421;51.030;4.006;2022-09-01T01:14:25;18.00;99.90
29417;DHT22;28421;51.030;4.006;2022-09-01T01:16:53;17.90;99.90
29417;DHT22;28421;51.030;4.006;2022-09-01T01:22:41;17.90;99.90
29417;DHT22;28421;51.030;4.006;2022-09-01T01:25:38;17.80;99.90
29417;DHT22;28421;51.030;4.006;2022-09-01T01:30:39;17.90;99.90
29417;DHT22;28421;51.030;4.006;2022-09-01T01:33:06;17.90;99.90
29417;DHT22;28421;51.030;4.006;2022-09-01T01:35:33;17.80;99.90
29417;DHT22;28421;51.030;4.006;2022-09-01T01:38:00;17.80;99.90
29417;DHT22;28421;51.030;4.006;2022-09-01T01:40:27;17.90;99.90
29417;DHT22;28421;51.030;4.006;2022-09-01T01:42:54;17.90;99.90
29417;DHT22;28421;51.030;4.006;2022-09-01T01:45:23;17.90;99.90
29417;DHT22;28421;51.030;4.006;2022-09-01T01:47:51;18.10;99.90
29417;DHT22;28421;51.030;4.006;2022-09-01T01:50:27;18.20;99.90
29417;DHT22;28421;51.030;4.006;2022-09-01T01:53:04;18.20;99.90
29417;DHT22;28421;51.030;4.006;2022-09-01T01:55:30;18.20;99.90
29417;DHT22;28421;51.030;4.006;2022-09-01T01:57:59;18.30;99.90
29417;DHT22;28421;51.030;4.006;2022-09-01T02:00:28;18.30;99.90
29417;DHT22;28421;51.030;4.006;2022-09-01T02:02:55;18.40;99.90
29417;DHT22;28421;51.030;4.006;2022-09-01T02:05:24;18.30;99.90
29417;DHT22;28421;51.030;4.006;2022-09-01T02:07:57;18.30;99.90
29417;DHT22;28421;51.030;4.006;2022-09-01T02:10:26;18.40;99.90
29417;DHT22;28421;51.030;4.006;2022-09-01T02:12:53;18.40;99.90
29417;DHT22;28421;51.030;4.006;2022-09-01T02:15:20;18.40;99.90
29417;DHT22;28421;51.030;4.006;2022-09-01T02:17:46;18.30;99.90
29417;DHT22;28421;51.030;4.006;2022-09-01T02:20:14;18.30;99.90
29417;DHT22;28421;51.030;4.006;2022-09-01T02:22:40;18.20;99.90
29417;DHT22;28421;51.030;4.006;2022-09-01T02:25:09;18.20;99.90
29417;DHT22;28421;51.030;4.006;2022-09-01T02:27:35;18.10;99.90
29417;DHT22;28421;51.030;4.006;2022-09-01T02:30:05;18.10;99.90
29417;DHT22;28421;51.030;4.006;2022-09-01T02:32:36;18.20;99.90
29417;DHT22;28421;51.030;4.006;2022-09-01T02:35:04;18.40;99.90
29417;DHT22;28421;51.030;4.006;2022-09-01T02:37:36;18.20;99.90
29417;DHT22;28421;51.030;4.006;2022-09-01T02:40:08;18.00;99.90
29417;DHT22;28421;51.030;4.006;2022-09-01T02:42:37;18.10;99.90
29417;DHT22;28421;51.030;4.006;2022-09-01T02:45:08;18.20;99.90
29417;DHT22;28421;51.030;4.006;2022-09-01T02:47:41;18.10;99.90
29417;DHT22;28421;51.030;4.006;2022-09-01T02:50:10;18.20;99.90
29417;DHT22;28421;51.030;4.006;2022-09-01T02:52:42;18.20;99.90
29417;DHT22;28421;51.030;4.006;2022-09-01T02:55:08;18.20;99.90
29417;DHT22;28421;51.030;4.006;2022-09-01T02:57:34;18.30;99.90
29417;DHT22;28421;51.030;4.006;2022-09-01T03:00:01;18.30;99.90
29417;DHT22;28421;51.030;4.006;2022-09-01T03:02:29;18.20;99.90
29417;DHT22;28421;51.030;4.006;2022-09-01T03:04:55;18.10;99.90
29417;DHT22;28421;51.030;4.006;2022-09-01T03:07:21;18.10;99.90
29417;DHT22;28421;51.030;4.006;2022-09-01T03:09:49;18.10;99.90
29417;DHT22;28421;51.030;4.006;2022-09-01T03:12:18;18.10;99.90
29417;DHT22;28421;51.030;4.006;2022-09-01T03:14:44;18.00;99.90
29417;DHT22;28421;51.030;4.006;2022-09-01T03:17:11;18.00;99.90
29417;DHT22;28421;51.030;4.006;2022-09-01T03:19:36;18.00;99.90
29417;DHT22;28421;51.030;4.006;2022-09-01T03:22:06;17.90;99.90
29417;DHT22;28421;51.030;4.006;2022-09-01T03:24:32;17.90;99.90
29417;DHT22;28421;51.030;4.006;2022-09-01T03:26:58;17.90;99.90
29417;DHT22;28421;51.030;4.006;2022-09-01T03:29:26;17.70;99.90
29417;DHT22;28421;51.030;4.006;2022-09-01T03:31:52;17.40;99.90
29417;DHT22;28421;51.030;4.006;2022-09-01T03:34:18;17.40;99.90
29417;DHT22;28421;51.030;4.006;2022-09-01T03:36:50;17.30;99.90
29417;DHT22;28421;51.030;4.006;2022-09-01T03:39:21;17.30;99.90
29417;DHT22;28421;51.030;4.006;2022-09-01T03:41:47;17.20;99.90
29417;DHT22;28421;51.030;4.006;2022-09-01T03:44:14;17.20;99.90
29417;DHT22;28421;51.030;4.006;2022-09-01T03:46:41;17.00;99.90
29417;DHT22;28421;51.030;4.006;2022-09-01T03:49:08;16.90;99.90
29417;DHT22;28421;51.030;4.006;2022-09-01T03:51:41;17.00;99.90
29417;DHT22;28421;51.030;4.006;2022-09-01T03:54:08;17.00;99.90
29417;DHT22;28421;51.030;4.006;2022-09-01T03:56:34;17.00;99.90
29417;DHT22;28421;51.030;4.006;2022-09-01T03:59:00;16.90;99.90
29417;DHT22;28421;51.030;4.006;2022-09-01T04:01:27;16.80;99.90
29417;DHT22;28421;51.030;4.006;2022-09-01T04:03:54;16.80;99.90
29417;DHT22;28421;51.030;4.006;2022-09-01T04:06:23;16.70;99.90
29417;DHT22;28421;51.030;4.006;2022-09-01T04:08:51;16.70;99.90
29417;DHT22;28421;51.030;4.006;2022-09-01T04:11:27;16.50;99.90
29417;DHT22;28421;51.030;4.006;2022-09-01T04:13:54;16.40;99.90
29417;DHT22;28421;51.030;4.006;2022-09-01T04:16:25;16.20;99.90
29417;DHT22;28421;51.030;4.006;2022-09-01T04:19:15;16.20;99.90
29417;DHT22;28421;51.030;4.006;2022-09-01T04:21:48;16.20;99.90
29417;DHT22;28421;51.030;4.006;2022-09-01T04:24:15;16.00;99.90
29417;DHT22;28421;51.030;4.006;2022-09-01T04:26:43;16.00;99.90
29417;DHT22;28421;51.030;4.006;2022-09-01T04:29:12;16.10;99.90
29417;DHT22;28421;51.030;4.006;2022-09-01T04:31:38;16.00;99.90
29417;DHT22;28421;51.030;4.006;2022-09-01T04:34:05;15.90;99.90
29417;DHT22;28421;51.030;4.006;2022-09-01T04:36:43;15.80;99.90
29417;DHT22;28421;51.030;4.006;2022-09-01T04:39:10;15.70;99.90
29417;DHT22;28421;51.030;4.006;2022-09-01T04:41:43;15.60;99.90
29417;DHT22;28421;51.030;4.006;2022-09-01T04:44:12;15.60;99.90
29417;DHT22;28421;51.030;4.006;2022-09-01T04:46:41;15.50;99.90
29417;DHT22;28421;51.030;4.006;2022-09-01T04:49:11;15.40;99.90
29417;DHT22;28421;51.030;4.006;2022-09-01T04:51:43;15.30;99.90
29417;DHT22;28421;51.030;4.006;2022-09-01T04:54:10;15.40;99.90
29417;DHT22;28421;51.030;4.006;2022-09-01T04:56:42;15.40;99.90
29417;DHT22;28421;51.030;4.006;2022-09-01T04:59:14;15.30;99.90
29417;DHT22;28421;51.030;4.006;2022-09-01T05:01:42;15.00;99.90
29417;DHT22;28421;51.030;4.006;2022-09-01T05:04:11;15.20;99.90
29417;DHT22;28421;51.030;4.006;2022-09-01T05:06:46;15.70;99.90
29417;DHT22;28421;51.030;4.006;2022-09-01T05:09:17;15.10;99.90
29417;DHT22;28421;51.030;4.006;2022-09-01T05:12:06;14.40;99.90
29417;DHT22;28421;51.030;4.006;2022-09-01T05:14:42;15.10;99.90
29417;DHT22;28421;51.030;4.006;2022-09-01T05:17:10;14.90;99.90
29417;DHT22;28421;51.030;4.006;2022-09-01T05:19:39;14.60;99.90
29417;DHT22;28421;51.030;4.006;2022-09-01T05:22:06;14.80;99.90
29417;DHT22;28421;51.030;4.006;2022-09-01T05:24:36;14.60;99.90
29417;DHT22;28421;51.030;4.006;2022-09-01T05:27:04;14.90;99.90
29417;DHT22;28421;51.030;4.006;2022-09-01T05:29:33;15.00;99.90
29417;DHT22;28421;51.030;4.006;2022-09-01T05:32:04;15.00;99.90
29417;DHT22;28421;51.030;4.006;2022-09-01T05:34:36;15.10;99.90
29417;DHT22;28421;51.030;4.006;2022-09-01T05:37:04;14.90;99.90
29417;DHT22;28421;51.030;4.006;2022-09-01T05:39:31;14.70;99.90
29417;DHT22;28421;51.030;4.006;2022-09-01T05:41:58;15.00;99.90
29417;DHT22;28421;51.030;4.006;2022-09-01T05:44:24;15.00;99.90
29417;DHT22;28421;51.030;4.006;2022-09-01T05:46:52;14.90;99.90
29417;DHT22;28421;51.030;4.006;2022-09-01T05:49:20;15.00;99.90
29417;DHT22;28421;51.030;4.006;2022-09-01T05:51:49;15.10;99.90
29417;DHT22;28421;51.030;4.006;2022-09-01T05:54:23;15.20;99.90
29417;DHT22;28421;51.030;4.006;2022-09-01T05:56:50;15.20;99.90
29417;DHT22;28421;51.030;4.006;2022-09-01T05:59:24;15.30;99.90
29417;DHT22;28421;51.030;4.006;2022-09-01T06:01:53;15.20;99.90
29417;DHT22;28421;51.030;4.006;2022-09-01T06:04:18;15.20;99.90
29417;DHT22;28421;51.030;4.006;2022-09-01T06:06:47;15.30;99.90
29417;DHT22;28421;51.030;4.006;2022-09-01T06:09:17;15.40;99.90
29417;DHT22;28421;51.030;4.006;2022-09-01T06:11:45;15.10;99.90
29417;DHT22;28421;51.030;4.006;2022-09-01T06:14:13;15.50;99.90
29417;DHT22;28421;51.030;4.006;2022-09-01T06:16:42;16.00;99.90
29417;DHT22;28421;51.030;4.006;2022-09-01T06:19:09;16.10;99.90
29417;DHT22;28421;51.030;4.006;2022-09-01T06:21:40;15.80;99.90
29417;DHT22;28421;51.030;4.006;2022-09-01T06:24:06;15.90;99.90
29417;DHT22;28421;51.030;4.006;2022-09-01T06:26:35;15.90;99.90
29417;DHT22;28421;51.030;4.006;2022-09-01T06:29:05;15.80;99.90
29417;DHT22;28421;51.030;4.006;2022-09-01T06:31:33;15.60;99.90
29417;DHT22;28421;51.030;4.006;2022-09-01T06:34:08;15.80;99.90
29417;DHT22;28421;51.030;4.006;2022-09-01T06:36:38;15.90;99.90
29417;DHT22;28421;51.030;4.006;2022-09-01T06:39:09;16.20;99.90
29417;DHT22;28421;51.030;4.006;2022-09-01T06:41:48;15.90;99.90
29417;DHT22;28421;51.030;4.006;2022-09-01T06:44:18;15.90;99.90
29417;DHT22;28421;51.030;4.006;2022-09-01T06:46:52;16.00;99.90
29417;DHT22;28421;51.030;4.006;2022-09-01T06:49:19;16.10;99.90
29417;DHT22;28421;51.030;4.006;2022-09-01T06:51:47;16.10;99.90
29417;DHT22;28421;51.030;4.006;2022-09-01T06:54:21;16.30;99.90
29417;DHT22;28421;51.030;4.006;2022-09-01T06:56:47;16.20;99.90
29417;DHT22;28421;51.030;4.006;2022-09-01T06:59:13;16.30;99.90
29417;DHT22;28421;51.030;4.006;2022-09-01T07:01:43;16.40;99.90
29417;DHT22;28421;51.030;4.006;2022-09-01T07:04:09;16.50;99.90
29417;DHT22;28421;51.030;4.006;2022-09-01T07:06:40;16.50;99.90
29417;DHT22;28421;51.030;4.006;2022-09-01T07:09:15;16.60;99.90
29417;DHT22;28421;51.030;4.006;2022-09-01T07:11:43;16.70;99.90
29417;DHT22;28421;51.030;4.006;2022-09-01T07:14:09;16.90;99.90
29417;DHT22;28421;51.030;4.006;2022-09-01T07:16:37;17.00;99.90
29417;DHT22;28421;51.030;4.006;2022-09-01T07:19:06;17.00;99.90
29417;DHT22;28421;51.030;4.006;2022-09-01T07:21:39;16.90;99.90
29417;DHT22;28421;51.030;4.006;2022-09-01T07:24:06;16.90;99.90
29417;DHT22;28421;51.030;4.006;2022-09-01T07:26:33;16.90;99.90
29417;DHT22;28421;51.030;4.006;2022-09-01T07:29:00;16.90;99.90
29417;DHT22;28421;51.030;4.006;2022-09-01T07:31:34;17.00;99.90
29417;DHT22;28421;51.030;4.006;2022-09-01T07:34:07;17.20;99.90
29417;DHT22;28421;51.030;4.006;2022-09-01T07:36:34;17.60;99.90
29417;DHT22;28421;51.030;4.006;2022-09-01T07:39:03;17.60;99.90
29417;DHT22;28421;51.030;4.006;2022-09-01T07:41:29;17.70;99.90
29417;DHT22;28421;51.030;4.006;2022-09-01T07:44:13;17.80;99.90
29417;DHT22;28421;51.030;4.006;2022-09-01T07:46:48;17.90;99.90
29417;DHT22;28421;51.030;4.006;2022-09-01T07:49:18;17.90;99.90
29417;DHT22;28421;51.030;4.006;2022-09-01T07:51:45;18.00;99.90
29417;DHT22;28421;51.030;4.006;2022-09-01T07:54:17;18.20;99.90
29417;DHT22;28421;51.030;4.006;2022-09-01T07:56:44;18.30;99.90
29417;DHT22;28421;51.030;4.006;2022-09-01T07:59:10;18.50;99.90
29417;DHT22;28421;51.030;4.006;2022-09-01T08:01:44;18.70;99.90
29417;DHT22;28421;51.030;4.006;2022-09-01T08:04:11;18.80;99.90
29417;DHT22;28421;51.030;4.006;2022-09-01T08:06:40;19.00;99.90
29417;DHT22;28421;51.030;4.006;2022-09-01T08:11:35;19.30;99.90
29417;DHT22;28421;51.030;4.006;2022-09-01T08:14:00;19.50;99.90
29417;DHT22;28421;51.030;4.006;2022-09-01T08:16:29;19.70;99.90
29417;DHT22;28421;51.030;4.006;2022-09-01T08:18:57;19.90;99.90
29417;DHT22;28421;51.030;4.006;2022-09-01T08:21:29;19.90;99.90
29417;DHT22;28421;51.030;4.006;2022-09-01T08:24:00;19.80;99.90
29417;DHT22;28421;51.030;4.006;2022-09-01T08:26:27;19.80;99.90
29417;DHT22;28421;51.030;4.006;2022-09-01T08:28:53;20.10;99.90
29417;DHT22;28421;51.030;4.006;2022-09-01T08:31:26;20.10;99.90
29417;DHT22;28421;51.030;4.006;2022-09-01T08:33:53;20.30;99.90
29417;DHT22;28421;51.030;4.006;2022-09-01T08:36:20;20.40;99.90
29417;DHT22;28421;51.030;4.006;2022-09-01T08:38:46;20.50;99.90
29417;DHT22;28421;51.030;4.006;2022-09-01T08:41:19;20.70;99.90
29417;DHT22;28421;51.030;4.006;2022-09-01T08:46:36;20.90;99.90
29417;DHT22;28421;51.030;4.006;2022-09-01T08:49:14;20.80;99.90
29417;DHT22;28421;51.030;4.006;2022-09-01T08:54:55;21.00;99.90
29417;DHT22;28421;51.030;4.006;2022-09-01T08:57:25;21.20;99.90
29417;DHT22;28421;51.030;4.006;2022-09-01T09:00:29;21.30;99.90
29417;DHT22;28421;51.030;4.006;2022-09-01T09:08:35;21.40;99.90
29417;DHT22;28421;51.030;4.006;2022-09-01T09:11:40;21.50;99.90
29417;DHT22;28421;51.030;4.006;2022-09-01T09:14:19;21.70;99.90
29417;DHT22;28421;51.030;4.006;2022-09-01T09:16:49;21.70;99.90
29417;DHT22;28421;51.030;4.006;2022-09-01T09:19:34;21.70;99.90
29417;DHT22;28421;51.030;4.006;2022-09-01T09:22:05;22.00;99.90
29417;DHT22;28421;51.030;4.006;2022-09-01T09:32:22;22.50;99.70
29417;DHT22;28421;51.030;4.006;2022-09-01T09:34:49;22.50;99.90
29417;DHT22;28421;51.030;4.006;2022-09-01T09:37:28;22.80;99.70
29417;DHT22;28421;51.030;4.006;2022-09-01T09:40:16;23.00;99.30
29417;DHT22;28421;51.030;4.006;2022-09-01T09:45:22;23.40;98.50
29417;DHT22;28421;51.030;4.006;2022-09-01T09:47:50;23.30;98.60
29417;DHT22;28421;51.030;4.006;2022-09-01T09:52:49;23.50;98.40
29417;DHT22;28421;51.030;4.006;2022-09-01T09:55:36;23.50;98.90
29417;DHT22;28421;51.030;4.006;2022-09-01T09:58:13;23.60;98.30
29417;DHT22;28421;51.030;4.006;2022-09-01T10:00:39;23.60;98.50
29417;DHT22;28421;51.030;4.006;2022-09-01T10:03:07;23.60;97.90
29417;DHT22;28421;51.030;4.006;2022-09-01T10:05:42;23.80;98.30
29417;DHT22;28421;51.030;4.006;2022-09-01T10:10:59;24.10;97.80
29417;DHT22;28421;51.030;4.006;2022-09-01T10:13:26;23.90;96.90
29417;DHT22;28421;51.030;4.006;2022-09-01T10:15:58;23.90;97.40
29417;DHT22;28421;51.030;4.006;2022-09-01T10:18:29;23.90;97.60
29417;DHT22;28421;51.030;4.006;2022-09-01T10:21:11;24.10;97.80
29417;DHT22;28421;51.030;4.006;2022-09-01T10:23:38;24.40;97.50
29417;DHT22;28421;51.030;4.006;2022-09-01T10:28:45;24.40;96.50
29417;DHT22;28421;51.030;4.006;2022-09-01T10:31:13;24.60;96.50
29417;DHT22;28421;51.030;4.006;2022-09-01T10:33:39;24.60;96.60
29417;DHT22;28421;51.030;4.006;2022-09-01T10:36:05;24.60;96.80
29417;DHT22;28421;51.030;4.006;2022-09-01T10:38:31;24.60;96.20
29417;DHT22;28421;51.030;4.006;2022-09-01T10:40:58;24.70;95.00
29417;DHT22;28421;51.030;4.006;2022-09-01T10:48:46;25.20;94.60
29417;DHT22;28421;51.030;4.006;2022-09-01T10:53:48;25.30;94.60
29417;DHT22;28421;51.030;4.006;2022-09-01T10:56:15;25.10;94.40
29417;DHT22;28421;51.030;4.006;2022-09-01T11:04:12;25.10;93.70
29417;DHT22;28421;51.030;4.006;2022-09-01T11:09:27;25.20;93.20
29417;DHT22;28421;51.030;4.006;2022-09-01T11:14:25;25.20;92.60
29417;DHT22;28421;51.030;4.006;2022-09-01T11:19:53;25.10;92.20
29417;DHT22;28421;51.030;4.006;2022-09-01T11:22:29;25.30;92.40
29417;DHT22;28421;51.030;4.006;2022-09-01T11:30:22;25.70;92.30
29417;DHT22;28421;51.030;4.006;2022-09-01T11:32:51;25.60;92.00
29417;DHT22;28421;51.030;4.006;2022-09-01T11:35:25;25.60;91.50
29417;DHT22;28421;51.030;4.006;2022-09-01T11:38:01;25.10;92.20
29417;DHT22;28421;51.030;4.006;2022-09-01T11:40:31;25.30;92.10
29417;DHT22;28421;51.030;4.006;2022-09-01T11:42:58;25.70;92.20
29417;DHT22;28421;51.030;4.006;2022-09-01T11:45:27;25.90;91.50
29417;DHT22;28421;51.030;4.006;2022-09-01T11:47:59;26.10;91.30
29417;DHT22;28421;51.030;4.006;2022-09-01T11:50:33;26.20;91.40
29417;DHT22;28421;51.030;4.006;2022-09-01T11:55:46;26.40;91.00
29417;DHT22;28421;51.030;4.006;2022-09-01T12:00:57;26.00;90.70
29417;DHT22;28421;51.030;4.006;2022-09-01T12:03:36;26.20;91.20
29417;DHT22;28421;51.030;4.006;2022-09-01T12:06:04;26.60;91.00
29417;DHT22;28421;51.030;4.006;2022-09-01T12:08:37;26.60;90.50
29417;DHT22;28421;51.030;4.006;2022-09-01T12:11:08;26.80;90.70
29417;DHT22;28421;51.030;4.006;2022-09-01T12:13:36;26.90;90.20
29417;DHT22;28421;51.030;4.006;2022-09-01T12:16:06;26.90;90.00
29417;DHT22;28421;51.030;4.006;2022-09-01T12:18:43;26.80;90.10
29417;DHT22;28421;51.030;4.006;2022-09-01T12:21:19;26.80;89.70
29417;DHT22;28421;51.030;4.006;2022-09-01T12:23:45;27.00;89.90
29417;DHT22;28421;51.030;4.006;2022-09-01T12:26:18;27.20;89.70
29417;DHT22;28421;51.030;4.006;2022-09-01T12:28:45;27.20;89.00
29417;DHT22;28421;51.030;4.006;2022-09-01T12:31:17;27.20;87.10
29417;DHT22;28421;51.030;4.006;2022-09-01T12:33:45;27.00;88.40
29417;DHT22;28421;51.030;4.006;2022-09-01T12:36:34;26.80;88.30
29417;DHT22;28421;51.030;4.006;2022-09-01T12:39:23;26.90;88.20
29417;DHT22;28421;51.030;4.006;2022-09-01T12:44:50;26.50;86.70
29417;DHT22;28421;51.030;4.006;2022-09-01T12:50:07;26.40;87.40
29417;DHT22;28421;51.030;4.006;2022-09-01T12:52:56;26.50;87.30
29417;DHT22;28421;51.030;4.006;2022-09-01T12:55:29;26.70;87.60
29417;DHT22;28421;51.030;4.006;2022-09-01T12:57:57;26.80;87.10
29417;DHT22;28421;51.030;4.006;2022-09-01T13:00:27;26.90;87.00
29417;DHT22;28421;51.030;4.006;2022-09-01T13:05:29;27.20;86.10
29417;DHT22;28421;51.030;4.006;2022-09-01T13:07:58;27.50;85.80
29417;DHT22;28421;51.030;4.006;2022-09-01T13:10:26;27.40;85.90
29417;DHT22;28421;51.030;4.006;2022-09-01T13:12:55;27.20;85.10
29417;DHT22;28421;51.030;4.006;2022-09-01T13:15:23;27.00;86.10
29417;DHT22;28421;51.030;4.006;2022-09-01T13:17:50;26.90;85.60
29417;DHT22;28421;51.030;4.006;2022-09-01T13:20:16;26.90;86.50
29417;DHT22;28421;51.030;4.006;2022-09-01T13:22:42;27.10;85.40
29417;DHT22;28421;51.030;4.006;2022-09-01T13:25:11;27.30;85.10
29417;DHT22;28421;51.030;4.006;2022-09-01T13:27:38;26.60;85.50
29417;DHT22;28421;51.030;4.006;2022-09-01T13:30:10;26.50;86.50
29417;DHT22;28421;51.030;4.006;2022-09-01T13:32:36;26.70;85.90
29417;DHT22;28421;51.030;4.006;2022-09-01T13:35:02;26.70;85.50
29417;DHT22;28421;51.030;4.006;2022-09-01T13:37:28;26.90;84.60
29417;DHT22;28421;51.030;4.006;2022-09-01T13:39:54;27.00;85.40
29417;DHT22;28421;51.030;4.006;2022-09-01T13:42:20;27.10;85.50
29417;DHT22;28421;51.030;4.006;2022-09-01T13:44:46;27.20;85.40
29417;DHT22;28421;51.030;4.006;2022-09-01T13:47:12;27.20;85.30
29417;DHT22;28421;51.030;4.006;2022-09-01T13:49:38;27.20;85.60
29417;DHT22;28421;51.030;4.006;2022-09-01T13:52:03;27.20;85.10
29417;DHT22;28421;51.030;4.006;2022-09-01T13:54:29;27.20;84.50
29417;DHT22;28421;51.030;4.006;2022-09-01T13:56:55;27.30;85.10
29417;DHT22;28421;51.030;4.006;2022-09-01T13:59:21;27.20;85.10
29417;DHT22;28421;51.030;4.006;2022-09-01T14:01:46;26.80;83.80
29417;DHT22;28421;51.030;4.006;2022-09-01T14:04:12;27.10;84.70
29417;DHT22;28421;51.030;4.006;2022-09-01T14:06:40;26.70;84.50
29417;DHT22;28421;51.030;4.006;2022-09-01T14:09:06;26.70;85.00
29417;DHT22;28421;51.030;4.006;2022-09-01T14:11:31;26.90;85.60
29417;DHT22;28421;51.030;4.006;2022-09-01T14:13:57;27.10;84.50
29417;DHT22;28421;51.030;4.006;2022-09-01T14:16:23;27.10;84.80
29417;DHT22;28421;51.030;4.006;2022-09-01T14:18:48;27.00;84.80
29417;DHT22;28421;51.030;4.006;2022-09-01T14:21:15;26.60;84.70
29417;DHT22;28421;51.030;4.006;2022-09-01T14:23:44;26.60;85.30
29417;DHT22;28421;51.030;4.006;2022-09-01T14:26:13;26.80;85.60
29417;DHT22;28421;51.030;4.006;2022-09-01T14:28:40;26.90;84.70
29417;DHT22;28421;51.030;4.006;2022-09-01T14:31:12;27.00;84.30
29417;DHT22;28421;51.030;4.006;2022-09-01T14:33:39;26.60;83.80
29417;DHT22;28421;51.030;4.006;2022-09-01T14:36:06;26.70;84.40
29417;DHT22;28421;51.030;4.006;2022-09-01T14:38:32;26.90;84.30
29417;DHT22;28421;51.030;4.006;2022-09-01T14:40:58;27.00;84.30
29417;DHT22;28421;51.030;4.006;2022-09-01T14:43:23;27.10;84.10
29417;DHT22;28421;51.030;4.006;2022-09-01T14:46:01;27.10;83.70
29417;DHT22;28421;51.030;4.006;2022-09-01T14:48:31;27.10;83.40
29417;DHT22;28421;51.030;4.006;2022-09-01T14:50:56;27.10;83.50
29417;DHT22;28421;51.030;4.006;2022-09-01T14:53:23;26.70;83.50
29417;DHT22;28421;51.030;4.006;2022-09-01T14:55:49;26.80;83.80
29417;DHT22;28421;51.030;4.006;2022-09-01T14:58:14;26.60;84.90
29417;DHT22;28421;51.030;4.006;2022-09-01T15:00:41;26.50;83.60
29417;DHT22;28421;51.030;4.006;2022-09-01T15:03:08;26.80;84.60
29417;DHT22;28421;51.030;4.006;2022-09-01T15:05:35;26.70;84.10
29417;DHT22;28421;51.030;4.006;2022-09-01T15:08:01;26.90;83.90
29417;DHT22;28421;51.030;4.006;2022-09-01T15:10:27;27.00;84.20
29417;DHT22;28421;51.030;4.006;2022-09-01T15:12:55;26.90;83.90
29417;DHT22;28421;51.030;4.006;2022-09-01T15:15:21;27.10;83.70
29417;DHT22;28421;51.030;4.006;2022-09-01T15:17:47;27.00;82.10
29417;DHT22;28421;51.030;4.006;2022-09-01T15:20:13;27.00;83.60
29417;DHT22;28421;51.030;4.006;2022-09-01T15:22:57;27.20;83.00
29417;DHT22;28421;51.030;4.006;2022-09-01T15:25:23;27.40;83.00
29417;DHT22;28421;51.030;4.006;2022-09-01T15:27:49;27.20;82.20
29417;DHT22;28421;51.030;4.006;2022-09-01T15:30:15;27.30;82.90
29417;DHT22;28421;51.030;4.006;2022-09-01T15:32:48;27.40;81.90
29417;DHT22;28421;51.030;4.006;2022-09-01T15:35:16;27.30;82.40
29417;DHT22;28421;51.030;4.006;2022-09-01T15:37:42;27.20;82.10
29417;DHT22;28421;51.030;4.006;2022-09-01T15:40:10;27.20;81.90
29417;DHT22;28421;51.030;4.006;2022-09-01T15:42:36;27.10;82.00
29417;DHT22;28421;51.030;4.006;2022-09-01T15:45:05;26.90;81.80
29417;DHT22;28421;51.030;4.006;2022-09-01T15:47:34;26.90;82.10
29417;DHT22;28421;51.030;4.006;2022-09-01T15:50:04;27.00;82.40
29417;DHT22;28421;51.030;4.006;2022-09-01T15:52:31;27.00;81.90
29417;DHT22;28421;51.030;4.006;2022-09-01T15:54:58;27.00;82.30
29417;DHT22;28421;51.030;4.006;2022-09-01T15:57:24;26.50;81.40
29417;DHT22;28421;51.030;4.006;2022-09-01T15:59:50;26.50;81.20
29417;DHT22;28421;51.030;4.006;2022-09-01T16:02:16;26.50;81.90
29417;DHT22;28421;51.030;4.006;2022-09-01T16:04:46;26.30;81.30
29417;DHT22;28421;51.030;4.006;2022-09-01T16:07:11;26.10;82.40
29417;DHT22;28421;51.030;4.006;2022-09-01T16:09:37;26.30;81.90
29417;DHT22;28421;51.030;4.006;2022-09-01T16:12:03;26.30;81.70
29417;DHT22;28421;51.030;4.006;2022-09-01T16:14:30;26.50;82.10
29417;DHT22;28421;51.030;4.006;2022-09-01T16:17:15;26.60;81.10
29417;DHT22;28421;51.030;4.006;2022-09-01T16:20:07;26.40;81.00
29417;DHT22;28421;51.030;4.006;2022-09-01T16:22:37;26.40;81.50
29417;DHT22;28421;51.030;4.006;2022-09-01T16:25:27;26.50;82.20
29417;DHT22;28421;51.030;4.006;2022-09-01T16:27:55;26.30;80.70
29417;DHT22;28421;51.030;4.006;2022-09-01T16:30:25;26.10;81.20
29417;DHT22;28421;51.030;4.006;2022-09-01T16:32:52;26.20;81.70
29417;DHT22;28421;51.030;4.006;2022-09-01T16:35:20;26.30;81.50
29417;DHT22;28421;51.030;4.006;2022-09-01T16:54:14;25.90;81.50
29417;DHT22;28421;51.030;4.006;2022-09-01T16:59:43;25.70;81.50
29417;DHT22;28421;51.030;4.006;2022-09-01T17:04:59;25.70;81.40
29417;DHT22;28421;51.030;4.006;2022-09-01T17:10:18;25.60;81.30
29417;DHT22;28421;51.030;4.006;2022-09-01T17:12:48;25.70;87.90
29417;DHT22;28421;51.030;4.006;2022-09-01T17:15:32;25.30;81.50
29417;DHT22;28421;51.030;4.006;2022-09-01T17:18:16;25.10;81.50
29417;DHT22;28421;51.030;4.006;2022-09-01T17:20:47;25.00;82.60
29417;DHT22;28421;51.030;4.006;2022-09-01T17:23:19;25.00;82.70
29417;DHT22;28421;51.030;4.006;2022-09-01T17:25:51;24.70;90.00
29417;DHT22;28421;51.030;4.006;2022-09-01T17:28:52;24.60;83.80